Gambell Airport Gambell US
ICAO: PAGM
IATA:
Category: Medium
Scheduled Services:

Elevation: 27 ft
TransAlt. 0 ft.

Airport Communications:
AWOS 3:125.9
ANCHORAGE CNTR:132.2
CTAF:122.7
NOME RDO:122
TWEB:36.9

PAGM Zoom In..

Runways:

(A) RW 16 length 4499 ft width 96 ft
---- / hdg 160

(B) RW 34 length 4499 ft width 96 ft
---- / hdg 340

Location; PAGM
Day. 20 / Time. 19.56 Zulu
* Altimeter: 30.18
* Temperature: 09° c. 48.2°f.
* Wind from: 210° Speed 08 kn.
Dewpoint: 07° c.
Visibility: 10 Statute Miles.
Clouds: Overcast 2100 ft.

PAGM 201956Z AUTO 21008KT 10SM OVC021 09/07 A3018 RMK AO2 SLP228 T00890067


Wind From 210°
Speed 08 kn.

 
 
jpsmedia.com for Web Design worldairports.se 2018   terms of use